createdAt,value
2016-12-11T00:00:24.753Z,997.29
2016-12-11T00:01:24.897Z,997.99
2016-12-11T00:02:24.746Z,997.55
2016-12-11T00:03:24.769Z,997.88
2016-12-11T00:04:24.748Z,997.89
2016-12-11T00:05:24.782Z,998.13
2016-12-11T00:06:24.819Z,998.28
2016-12-11T00:07:24.827Z,998.49
2016-12-11T00:08:24.761Z,998.59
2016-12-11T00:09:24.846Z,998.41
2016-12-11T00:10:24.748Z,998.26
2016-12-11T00:11:24.956Z,998.29
2016-12-11T00:12:24.785Z,997.91
2016-12-11T00:13:24.812Z,997.91
2016-12-11T00:14:24.812Z,997.49
2016-12-11T00:15:24.918Z,998.84
2016-12-11T00:16:24.787Z,998.69
2016-12-11T00:17:24.841Z,998.54
2016-12-11T00:18:24.750Z,999.57
2016-12-11T00:19:24.986Z,999.67
2016-12-11T00:20:24.768Z,1000.15
2016-12-11T00:21:24.878Z,999.73
2016-12-11T00:22:24.753Z,1000.27
2016-12-11T00:23:24.791Z,1001.06
2016-12-11T00:24:24.780Z,1001.17
2016-12-11T00:25:24.782Z,1001.31
2016-12-11T00:26:24.810Z,1001.71
2016-12-11T00:27:24.801Z,1002.21
2016-12-11T00:28:24.787Z,1003.1
2016-12-11T00:29:24.807Z,1003.94
2016-12-11T00:30:24.758Z,1004.52
2016-12-11T00:31:24.941Z,1004.83
2016-12-11T00:32:24.790Z,1004.59
2016-12-11T00:33:24.835Z,1004.82
2016-12-11T00:34:24.786Z,1004.94
2016-12-11T00:35:24.914Z,1005.27
2016-12-11T00:36:24.845Z,1006.19
2016-12-11T00:37:24.906Z,1006.82
2016-12-11T00:38:24.833Z,1006.15
2016-12-11T00:39:24.804Z,1006.08
2016-12-11T00:40:24.786Z,1005.9
2016-12-11T00:41:24.814Z,1006.4
2016-12-11T00:42:24.810Z,1006.02
2016-12-11T00:43:24.927Z,1006.42
2016-12-11T00:44:24.848Z,1006.21
2016-12-11T00:45:24.883Z,1006.28
2016-12-11T00:46:24.841Z,1005.95
2016-12-11T00:47:24.857Z,1006.14
2016-12-11T00:48:24.757Z,1005.26
2016-12-11T00:49:24.954Z,1005.68
2016-12-11T00:50:24.797Z,1006.69
2016-12-11T00:51:24.893Z,1007.58
2016-12-11T00:52:24.790Z,1007.7
2016-12-11T00:53:24.815Z,1007.63
2016-12-11T00:54:24.784Z,1007.76
2016-12-11T00:55:24.872Z,1008.17
2016-12-11T00:56:24.857Z,1008.6
2016-12-11T00:57:24.802Z,1009
2016-12-11T00:58:24.777Z,1008.84
2016-12-11T00:59:24.872Z,1008.58
2016-12-11T01:00:24.811Z,1007
2016-12-11T01:01:24.876Z,1007.34
2016-12-11T01:02:24.790Z,1007.35
2016-12-11T01:03:24.827Z,1006.54
2016-12-11T01:04:24.826Z,1005.53
2016-12-11T01:05:24.958Z,1005.36
2016-12-11T01:06:24.876Z,1004.73
2016-12-11T01:07:24.908Z,1004.66
2016-12-11T01:08:24.803Z,1004.15
2016-12-11T01:09:24.842Z,1003.48
2016-12-11T01:10:24.830Z,1003.91
2016-12-11T01:11:24.886Z,1003.22
2016-12-11T01:12:24.796Z,1003.14
2016-12-11T01:13:24.858Z,1003.89
2016-12-11T01:14:24.833Z,1004.27
2016-12-11T01:15:25.834Z,1005.03
2016-12-11T01:16:24.861Z,1005.09
2016-12-11T01:17:24.925Z,1004.86
2016-12-11T01:18:24.818Z,1005.39
2016-12-11T01:19:24.869Z,1005
2016-12-11T01:20:24.801Z,1005.73
2016-12-11T01:21:24.874Z,1006.95
2016-12-11T01:22:24.828Z,1006.34
2016-12-11T01:23:24.828Z,1005.82
2016-12-11T01:24:24.825Z,1005.15
2016-12-11T01:25:24.847Z,1005.66
2016-12-11T01:26:24.901Z,1007.04
2016-12-11T01:27:24.940Z,1007.76
2016-12-11T01:28:24.881Z,1007.07
2016-12-11T01:29:24.923Z,1006.61
2016-12-11T01:30:24.881Z,1005.1
2016-12-11T01:31:24.879Z,1004.03
2016-12-11T01:32:24.841Z,1001.71
2016-12-11T01:33:24.881Z,1000.72
2016-12-11T01:34:24.822Z,999.38
2016-12-11T01:35:24.947Z,997.92
2016-12-11T01:36:24.908Z,996.92
2016-12-11T01:37:24.907Z,995.32
2016-12-11T01:38:24.836Z,994.1
2016-12-11T01:39:24.884Z,993.87
2016-12-11T01:40:24.870Z,992.84
2016-12-11T01:41:24.997Z,990.69
2016-12-11T01:42:24.829Z,989.04
2016-12-11T01:43:24.871Z,988.61
2016-12-11T01:44:24.869Z,987.21
2016-12-11T01:45:24.878Z,985.28
2016-12-11T01:46:24.862Z,984.4
2016-12-11T01:47:24.940Z,982.24
2016-12-11T01:48:24.854Z,982.17
2016-12-11T01:49:24.911Z,981.24
2016-12-11T01:50:24.892Z,981.04
2016-12-11T01:51:24.939Z,980.24
2016-12-11T01:52:26.097Z,979.77
2016-12-11T01:53:24.889Z,978.07
2016-12-11T01:54:24.862Z,976.98
2016-12-11T01:55:24.871Z,976.78
2016-12-11T01:56:24.953Z,977.78
2016-12-11T01:57:24.904Z,976.27
2016-12-11T01:58:24.871Z,975.03
2016-12-11T01:59:24.876Z,975.59
2016-12-11T02:00:24.863Z,975.32
2016-12-11T02:01:24.985Z,975.58
2016-12-11T02:02:24.913Z,974.6
2016-12-11T02:03:24.903Z,974.22
2016-12-11T02:04:24.894Z,974.51
2016-12-11T02:05:24.941Z,973.79
2016-12-11T02:06:24.916Z,973.91
2016-12-11T02:07:25.012Z,973.38
2016-12-11T02:08:24.909Z,973.66
2016-12-11T02:09:24.924Z,973.02
2016-12-11T02:10:24.886Z,971.86
2016-12-11T02:11:25.104Z,971.99
2016-12-11T02:12:24.909Z,970.53
2016-12-11T02:13:24.869Z,970.69
2016-12-11T02:14:24.862Z,970.05
2016-12-11T02:15:24.896Z,969.57
2016-12-11T02:16:24.920Z,969.68
2016-12-11T02:17:24.917Z,970.3
2016-12-11T02:18:24.907Z,969.84
2016-12-11T02:19:24.967Z,968.57
2016-12-11T02:20:24.913Z,968.77
2016-12-11T02:21:24.966Z,968.3
2016-12-11T02:22:24.899Z,967.58
2016-12-11T02:23:24.917Z,967.25
2016-12-11T02:24:24.908Z,966.97
2016-12-11T02:25:25.467Z,966.68
2016-12-11T02:26:24.924Z,966.28
2016-12-11T02:27:24.919Z,966.2
2016-12-11T02:28:24.917Z,967.22
2016-12-11T02:29:24.946Z,967.49
2016-12-11T02:30:24.925Z,966.92
2016-12-11T02:31:24.960Z,966.57
2016-12-11T02:32:24.919Z,966.55
2016-12-11T02:33:25.025Z,967.03
2016-12-11T02:34:24.938Z,966.53
2016-12-11T02:35:24.955Z,965.7
2016-12-11T02:36:24.966Z,965.28
2016-12-11T02:37:24.955Z,965.37
2016-12-11T02:38:24.887Z,965.67
2016-12-11T02:39:24.928Z,964.18
2016-12-11T02:40:24.925Z,964.58
2016-12-11T02:41:24.956Z,964.04
2016-12-11T02:42:24.926Z,964.26
2016-12-11T02:43:24.962Z,964.08
2016-12-11T02:44:24.934Z,964.03
2016-12-11T02:45:24.965Z,963.35
2016-12-11T02:46:24.951Z,963.37
2016-12-11T02:47:25.094Z,963.18
2016-12-11T02:48:24.911Z,963.03
2016-12-11T02:49:25.100Z,962.75
2016-12-11T02:50:24.932Z,963.04
2016-12-11T02:51:24.982Z,962.48
2016-12-11T02:52:24.936Z,961.97
2016-12-11T02:53:24.943Z,961.91
2016-12-11T02:54:24.968Z,961.17
2016-12-11T02:55:24.975Z,960.38
2016-12-11T02:56:24.973Z,960.57
2016-12-11T02:57:25.028Z,961.02
2016-12-11T02:58:24.944Z,961.55
2016-12-11T02:59:25.567Z,962.95
2016-12-11T03:00:24.936Z,962.84
2016-12-11T03:01:24.986Z,962.1
2016-12-11T03:02:24.948Z,962.19
2016-12-11T03:03:24.987Z,962.08
2016-12-11T03:04:24.954Z,961.13
2016-12-11T03:05:24.969Z,961.8
2016-12-11T03:06:24.944Z,962.22
2016-12-11T03:07:25.024Z,962.24
2016-12-11T03:08:24.953Z,962.42
2016-12-11T03:09:24.952Z,962.9
2016-12-11T03:10:24.912Z,962.48
2016-12-11T03:11:25.001Z,963.05
2016-12-11T03:12:24.954Z,962.79
2016-12-11T03:13:24.936Z,963.43
2016-12-11T03:14:24.941Z,963.58
2016-12-11T03:15:25.086Z,964.17
2016-12-11T03:16:24.985Z,964.51
2016-12-11T03:17:24.970Z,964.48
2016-12-11T03:18:24.980Z,963.61
2016-12-11T03:19:24.992Z,964.67
2016-12-11T03:20:25.022Z,965.65
2016-12-11T03:21:25.035Z,965.71
2016-12-11T03:22:24.964Z,965.71
2016-12-11T03:23:25.677Z,965.44
2016-12-11T03:24:24.975Z,965.69
2016-12-11T03:25:24.996Z,966.3
2016-12-11T03:26:25.016Z,965.97
2016-12-11T03:27:24.971Z,966.11
2016-12-11T03:28:24.964Z,965.81
2016-12-11T03:29:24.999Z,965.36
2016-12-11T03:30:25.536Z,965.68
2016-12-11T03:31:25.056Z,965.5
2016-12-11T03:32:25.004Z,966.07
2016-12-11T03:33:25.068Z,965.61
2016-12-11T03:34:24.981Z,965.6
2016-12-11T03:35:25.054Z,965.92
2016-12-11T03:36:25.008Z,965.81
2016-12-11T03:37:24.997Z,966.2
2016-12-11T03:38:25.006Z,966
2016-12-11T03:39:25.007Z,966.24
2016-12-11T03:40:24.997Z,965.7
2016-12-11T03:41:25.040Z,965.75
2016-12-11T03:42:24.984Z,964.61
2016-12-11T03:43:25.002Z,966.05
2016-12-11T03:44:25.035Z,965.51
2016-12-11T03:45:25.016Z,965.17
2016-12-11T03:46:25.036Z,965.9
2016-12-11T03:47:25.230Z,965.7
2016-12-11T03:48:25.025Z,965.91
2016-12-11T03:49:25.153Z,965.87
2016-12-11T03:50:25.006Z,964.94
2016-12-11T03:51:25.596Z,965.42
2016-12-11T03:52:25.033Z,965.08
2016-12-11T03:53:25.256Z,965.61
2016-12-11T03:54:25.033Z,965.83
2016-12-11T03:55:25.204Z,966.09
2016-12-11T03:56:25.078Z,965.37
2016-12-11T03:57:25.194Z,963.74
2016-12-11T03:58:25.042Z,963.29
2016-12-11T03:59:25.136Z,964.75
2016-12-11T04:00:25.027Z,963.4
2016-12-11T04:01:25.080Z,963.15
2016-12-11T04:02:25.670Z,962.44
2016-12-11T04:03:25.207Z,962.5
2016-12-11T04:04:25.085Z,962.17
2016-12-11T04:05:25.186Z,962.62
2016-12-11T04:06:25.089Z,963.48
2016-12-11T04:07:25.152Z,963.01
2016-12-11T04:08:25.074Z,962.53
2016-12-11T04:09:25.095Z,962.91
2016-12-11T04:10:25.062Z,962.74
2016-12-11T04:11:25.239Z,963.05
2016-12-11T04:12:25.038Z,961.99
2016-12-11T04:13:25.196Z,962.21
2016-12-11T04:14:25.107Z,961.77
2016-12-11T04:15:25.184Z,960.59
2016-12-11T04:16:25.111Z,960.22
2016-12-11T04:17:25.226Z,960.64
2016-12-11T04:18:25.046Z,960.04
2016-12-11T04:19:25.181Z,959.55
2016-12-11T04:20:25.087Z,958.96
2016-12-11T04:21:25.153Z,956.79
2016-12-11T04:22:25.081Z,955.78
2016-12-11T04:23:25.274Z,953.33
2016-12-11T04:24:25.067Z,948.67
2016-12-11T04:25:25.086Z,946.09
2016-12-11T04:26:25.118Z,943.91
2016-12-11T04:27:25.173Z,942.71
2016-12-11T04:28:25.060Z,943.84
2016-12-11T04:29:25.223Z,940.3
2016-12-11T04:30:25.091Z,939.91
2016-12-11T04:31:25.302Z,939.37
2016-12-11T04:32:25.057Z,938.53
2016-12-11T04:33:25.234Z,937.39
2016-12-11T04:34:25.073Z,935.55
2016-12-11T04:35:25.171Z,935.97
2016-12-11T04:36:25.128Z,935.25
2016-12-11T04:37:25.217Z,934.6
2016-12-11T04:38:25.120Z,934.88
2016-12-11T04:39:25.294Z,934.16
2016-12-11T04:40:25.105Z,931.31
2016-12-11T04:41:25.187Z,932.79
2016-12-11T04:42:25.093Z,933.31
2016-12-11T04:43:25.186Z,932.04
2016-12-11T04:44:25.074Z,931.75
2016-12-11T04:45:25.224Z,931.44
2016-12-11T04:46:25.122Z,931.2
2016-12-11T04:47:25.232Z,930.41
2016-12-11T04:48:25.076Z,928.73
2016-12-11T04:49:25.270Z,928.22
2016-12-11T04:50:25.149Z,928.56
2016-12-11T04:51:25.377Z,930.45
2016-12-11T04:52:25.113Z,929.14
2016-12-11T04:53:25.267Z,928.22
2016-12-11T04:54:25.074Z,928.84
2016-12-11T04:55:25.203Z,927.79
2016-12-11T04:56:25.117Z,929.41
2016-12-11T04:57:25.241Z,930.43
2016-12-11T04:58:25.100Z,928.95
2016-12-11T04:59:25.346Z,929.1
2016-12-11T05:00:25.079Z,927.5
2016-12-11T05:01:25.290Z,927.54
2016-12-11T05:02:25.134Z,927.03
2016-12-11T05:03:25.226Z,926.72
2016-12-11T05:04:25.064Z,926.73
2016-12-11T05:05:25.093Z,924.12
2016-12-11T05:06:25.122Z,924.12
2016-12-11T05:07:25.154Z,923.32
2016-12-11T05:08:25.088Z,924.39
2016-12-11T05:09:25.106Z,922.05
2016-12-11T05:10:25.085Z,922.55
2016-12-11T05:11:25.165Z,922.08
2016-12-11T05:12:25.104Z,922.66
2016-12-11T05:13:25.111Z,921.57
2016-12-11T05:14:25.093Z,919.97
2016-12-11T05:15:25.196Z,919.07
2016-12-11T05:16:25.137Z,919.48
2016-12-11T05:17:25.110Z,920.43
2016-12-11T05:18:25.094Z,918.94
2016-12-11T05:19:25.136Z,920.05
2016-12-11T05:20:25.102Z,918.42
2016-12-11T05:21:25.123Z,917.24
2016-12-11T05:22:25.106Z,918.48
2016-12-11T05:23:25.104Z,917.39
2016-12-11T05:24:25.105Z,917.17
2016-12-11T05:25:25.118Z,917.34
2016-12-11T05:26:25.175Z,916.32
2016-12-11T05:27:25.109Z,915.58
2016-12-11T05:28:25.094Z,912.9
2016-12-11T05:29:25.126Z,913.76
2016-12-11T05:30:25.104Z,915.3
2016-12-11T05:31:25.200Z,915.21
2016-12-11T05:32:25.111Z,915.6
2016-12-11T05:33:25.263Z,915.26
2016-12-11T05:34:25.124Z,913.63
2016-12-11T05:35:25.110Z,912.68
2016-12-11T05:36:25.139Z,912.58
2016-12-11T05:37:25.205Z,912.95
2016-12-11T05:38:25.127Z,913.96
2016-12-11T05:39:25.149Z,914.25
2016-12-11T05:40:25.124Z,912.3
2016-12-11T05:41:25.211Z,912.99
2016-12-11T05:42:25.094Z,912.6
2016-12-11T05:43:25.178Z,913.78
2016-12-11T05:44:25.123Z,913.09
2016-12-11T05:45:25.246Z,911.79
2016-12-11T05:46:25.164Z,912.66
2016-12-11T05:47:25.194Z,912.48
2016-12-11T05:48:25.148Z,914.8
2016-12-11T05:49:25.230Z,912.77
2016-12-11T05:50:25.165Z,912.58
2016-12-11T05:51:25.182Z,914.06
2016-12-11T05:52:25.173Z,915.13
2016-12-11T05:53:25.151Z,914.64
2016-12-11T05:54:25.120Z,914.86
2016-12-11T05:55:25.203Z,914.7
2016-12-11T05:56:25.170Z,913.4
2016-12-11T05:57:25.192Z,913.37
2016-12-11T05:58:25.176Z,916.11
2016-12-11T05:59:25.224Z,915.47
2016-12-11T06:00:25.136Z,914.14
2016-12-11T06:01:25.221Z,914.4
2016-12-11T06:02:25.157Z,914.43
2016-12-11T06:03:25.206Z,914.07
2016-12-11T06:04:25.159Z,912.89
2016-12-11T06:05:25.258Z,914.22
2016-12-11T06:06:25.172Z,913.85
2016-12-11T06:07:25.145Z,913.21
2016-12-11T06:08:25.162Z,913.47
2016-12-11T06:09:25.182Z,914.43
2016-12-11T06:10:25.145Z,914.75
2016-12-11T06:11:25.274Z,914.65
2016-12-11T06:12:25.176Z,915.29
2016-12-11T06:13:25.162Z,913.63
2016-12-11T06:14:25.176Z,912.59
2016-12-11T06:15:25.193Z,914.04
2016-12-11T06:16:25.184Z,914.73
2016-12-11T06:17:25.215Z,914.11
2016-12-11T06:18:25.171Z,912.71
2016-12-11T06:19:25.184Z,912.04
2016-12-11T06:20:25.171Z,912.85
2016-12-11T06:21:25.271Z,910.12
2016-12-11T06:22:25.199Z,909.17
2016-12-11T06:23:25.220Z,910.16
2016-12-11T06:24:25.165Z,911.41
2016-12-11T06:25:25.235Z,911.15
2016-12-11T06:26:25.236Z,909.65
2016-12-11T06:27:25.205Z,912.23
2016-12-11T06:28:25.165Z,911.34
2016-12-11T06:29:25.262Z,909.45
2016-12-11T06:30:25.193Z,908.24
2016-12-11T06:31:25.227Z,908.87
2016-12-11T06:32:25.161Z,908.24
2016-12-11T06:33:25.269Z,910.32
2016-12-11T06:34:25.194Z,909.08
2016-12-11T06:35:25.197Z,910.44
2016-12-11T06:36:25.265Z,910.74
2016-12-11T06:37:25.231Z,910.55
2016-12-11T06:38:25.197Z,911.11
2016-12-11T06:39:25.144Z,911.32
2016-12-11T06:40:25.179Z,911.05
2016-12-11T06:41:25.309Z,912.21
2016-12-11T06:42:25.178Z,910.95
2016-12-11T06:43:25.221Z,910.19
2016-12-11T06:44:25.196Z,909.83
2016-12-11T06:45:25.267Z,910.21
2016-12-11T06:46:25.218Z,910.02
2016-12-11T06:47:25.272Z,910.02
2016-12-11T06:48:25.201Z,909.22
2016-12-11T06:49:25.251Z,909.74
2016-12-11T06:50:25.182Z,909.67
2016-12-11T06:51:25.291Z,909.34
2016-12-11T06:52:25.220Z,909.45
2016-12-11T06:53:25.261Z,908.65
2016-12-11T06:54:25.235Z,908.83
2016-12-11T06:55:25.218Z,908.06
2016-12-11T06:56:25.251Z,907.96
2016-12-11T06:57:25.195Z,909.68
2016-12-11T06:58:25.748Z,907.25
2016-12-11T06:59:25.225Z,907.41
2016-12-11T07:00:25.208Z,909.15
2016-12-11T07:01:25.255Z,908.93
2016-12-11T07:02:25.219Z,909.1
2016-12-11T07:03:25.233Z,908.36
2016-12-11T07:04:25.249Z,907.82
2016-12-11T07:05:25.293Z,908.64
2016-12-11T07:06:25.296Z,908.18
2016-12-11T07:07:25.263Z,906.96
2016-12-11T07:08:25.240Z,907.2
2016-12-11T07:09:25.226Z,907.9
2016-12-11T07:10:25.255Z,906.91
2016-12-11T07:11:25.248Z,905.02
2016-12-11T07:12:25.241Z,905.86
2016-12-11T07:13:25.230Z,905.34
2016-12-11T07:14:25.280Z,906.93
2016-12-11T07:15:25.249Z,907.11
2016-12-11T07:16:25.300Z,907.23
2016-12-11T07:17:25.239Z,907.27
2016-12-11T07:18:25.231Z,906.95
2016-12-11T07:19:25.240Z,906.51
2016-12-11T07:20:25.247Z,907.5
2016-12-11T07:21:25.322Z,905.39
2016-12-11T07:22:25.247Z,907.17
2016-12-11T07:23:25.267Z,905.85
2016-12-11T07:24:25.251Z,905.45
2016-12-11T07:25:25.298Z,906.74
2016-12-11T07:26:25.306Z,905.87
2016-12-11T07:27:25.291Z,905.61
2016-12-11T07:28:25.275Z,906.78
2016-12-11T07:29:25.234Z,905.45
2016-12-11T07:30:25.477Z,906.62
2016-12-11T07:31:25.356Z,907.9
2016-12-11T07:32:25.251Z,906.51
2016-12-11T07:33:25.291Z,906.44
2016-12-11T07:34:25.276Z,907.32
2016-12-11T07:35:25.283Z,905.32
2016-12-11T07:36:25.281Z,907.1
2016-12-11T07:37:25.322Z,906.17
2016-12-11T07:38:25.285Z,906.76
2016-12-11T07:39:25.270Z,907.15
2016-12-11T07:40:25.256Z,905.87
2016-12-11T07:41:25.299Z,906.09
2016-12-11T07:42:25.338Z,906.87
2016-12-11T07:43:25.294Z,907.58
2016-12-11T07:44:25.299Z,907.66
2016-12-11T07:45:25.269Z,906.35
2016-12-11T07:46:25.322Z,907.46
2016-12-11T07:47:25.337Z,908.56
2016-12-11T07:48:25.268Z,908.91
2016-12-11T07:49:25.296Z,910.89
2016-12-11T07:50:25.300Z,909.54
2016-12-11T07:51:25.458Z,910.43
2016-12-11T07:52:25.314Z,910.38
2016-12-11T07:53:25.291Z,910.22
2016-12-11T07:54:25.291Z,909.74
2016-12-11T07:55:25.302Z,909.76
2016-12-11T07:56:25.313Z,910.01
2016-12-11T07:57:25.306Z,909.67
2016-12-11T07:58:25.276Z,910.96
2016-12-11T07:59:25.281Z,911.97
2016-12-11T08:00:25.298Z,909.89
2016-12-11T08:01:25.371Z,912.69
2016-12-11T08:02:25.314Z,911.08
2016-12-11T08:03:25.333Z,911.29
2016-12-11T08:04:25.295Z,910.18
2016-12-11T08:05:25.329Z,911.74
2016-12-11T08:06:25.329Z,911.96
2016-12-11T08:07:25.353Z,912.63
2016-12-11T08:08:25.336Z,911.28
2016-12-11T08:09:25.305Z,911.31
2016-12-11T08:10:25.327Z,912.28
2016-12-11T08:11:25.327Z,913.16
2016-12-11T08:12:25.355Z,914.39
2016-12-11T08:13:25.302Z,914.35
2016-12-11T08:14:25.286Z,913.85
2016-12-11T08:15:25.342Z,914.02
2016-12-11T08:16:25.404Z,915.03
2016-12-11T08:17:25.301Z,915.15
2016-12-11T08:18:25.456Z,915.46
2016-12-11T08:19:25.324Z,915.64
2016-12-11T08:20:25.313Z,915.82
2016-12-11T08:21:25.325Z,914.96
2016-12-11T08:22:25.313Z,916.18
2016-12-11T08:23:25.338Z,916.06
2016-12-11T08:24:25.452Z,916.95
2016-12-11T08:25:25.371Z,918
2016-12-11T08:26:25.337Z,917.33
2016-12-11T08:27:25.362Z,919.65
2016-12-11T08:28:25.383Z,920.53
2016-12-11T08:29:25.377Z,918.53
2016-12-11T08:30:25.411Z,918.28
2016-12-11T08:31:25.332Z,921.7
2016-12-11T08:32:25.465Z,924.87
2016-12-11T08:33:25.351Z,925.41
2016-12-11T08:34:25.333Z,927.83
2016-12-11T08:35:25.357Z,928.49
2016-12-11T08:36:25.319Z,924.33
2016-12-11T08:37:25.360Z,926.1
2016-12-11T08:38:25.326Z,927.06
2016-12-11T08:39:25.361Z,926.37
2016-12-11T08:40:25.344Z,924.79
2016-12-11T08:41:25.379Z,925.07
2016-12-11T08:42:25.359Z,927.06
2016-12-11T08:43:25.350Z,926.85
2016-12-11T08:44:25.331Z,928.05
2016-12-11T08:45:25.414Z,928.99
2016-12-11T08:46:25.343Z,929.07
2016-12-11T08:47:25.349Z,930
2016-12-11T08:48:25.334Z,928.65
2016-12-11T08:49:25.345Z,928.62
2016-12-11T08:50:25.351Z,929.76
2016-12-11T08:51:25.361Z,930.92
2016-12-11T08:52:25.373Z,929.39
2016-12-11T08:53:25.371Z,931.27
2016-12-11T08:54:25.371Z,931.03
2016-12-11T08:55:25.410Z,928.08
2016-12-11T08:56:25.384Z,928.45
2016-12-11T08:57:25.361Z,930.96
2016-12-11T08:58:25.358Z,931.4
2016-12-11T08:59:25.389Z,931.33
2016-12-11T09:00:25.556Z,932.47
2016-12-11T09:01:25.392Z,931.28
2016-12-11T09:02:25.529Z,930.94
2016-12-11T09:03:25.391Z,932.3
2016-12-11T09:04:25.553Z,933.04
2016-12-11T09:05:25.391Z,932.17
2016-12-11T09:06:25.462Z,933.21
2016-12-11T09:07:25.422Z,934.59
2016-12-11T09:08:25.382Z,939.75
2016-12-11T09:09:25.439Z,938.36
2016-12-11T09:10:25.420Z,938.09
2016-12-11T09:11:25.423Z,935.76
2016-12-11T09:12:25.911Z,937.15
2016-12-11T09:13:25.401Z,939.27
2016-12-11T09:14:25.410Z,939.26
2016-12-11T09:15:25.385Z,937.6
2016-12-11T09:16:25.426Z,939.95
2016-12-11T09:17:25.408Z,940.63
2016-12-11T09:18:25.472Z,941.54
2016-12-11T09:19:25.447Z,942.77
2016-12-11T09:20:25.567Z,942.96
2016-12-11T09:21:25.423Z,944.93
2016-12-11T09:22:25.639Z,945.35
2016-12-11T09:23:25.461Z,947.69
2016-12-11T09:24:25.559Z,944.1
2016-12-11T09:25:25.445Z,947.76
2016-12-11T09:26:25.416Z,953.17
2016-12-11T09:27:25.421Z,955.94
2016-12-11T09:28:25.473Z,958.66
2016-12-11T09:29:25.474Z,962.43
2016-12-11T09:30:25.402Z,968.51
2016-12-11T09:31:25.416Z,972.02
2016-12-11T09:32:25.515Z,975.4
2016-12-11T09:33:25.430Z,976.75
2016-12-11T09:34:25.393Z,982.61
2016-12-11T09:35:25.414Z,977.66
2016-12-11T09:36:25.566Z,970.77
2016-12-11T09:37:25.459Z,965.34
2016-12-11T09:38:25.487Z,964.43
2016-12-11T09:39:25.439Z,963.09
2016-12-11T09:40:25.437Z,961.92
2016-12-11T09:41:25.396Z,961.46
2016-12-11T09:42:25.546Z,959.68
2016-12-11T09:43:25.426Z,959.72
2016-12-11T09:44:25.613Z,960.48
2016-12-11T09:45:25.453Z,963.14
2016-12-11T09:46:25.416Z,961.87
2016-12-11T09:47:25.423Z,966.9
2016-12-11T09:48:25.417Z,966.8
2016-12-11T09:49:25.432Z,966.51
2016-12-11T09:50:25.469Z,966.72
2016-12-11T09:51:25.442Z,967.4
2016-12-11T09:52:25.635Z,966.66
2016-12-11T09:53:25.450Z,969.48
2016-12-11T09:54:25.580Z,969.09
2016-12-11T09:55:25.548Z,969.81
2016-12-11T09:56:25.541Z,972.96
2016-12-11T09:57:25.474Z,973.76
2016-12-11T09:58:25.636Z,975.93
2016-12-11T09:59:25.454Z,985.4
2016-12-11T10:00:25.646Z,981.08
2016-12-11T10:01:25.478Z,977.26
2016-12-11T10:02:25.496Z,973.75
2016-12-11T10:03:25.476Z,974.93
2016-12-11T10:04:25.459Z,980.98
2016-12-11T10:05:25.454Z,982.24
2016-12-11T10:06:25.477Z,984.27
2016-12-11T10:07:25.466Z,986.07
2016-12-11T10:08:25.596Z,985.18
2016-12-11T10:09:25.437Z,985.59
2016-12-11T10:10:25.621Z,979.27
2016-12-11T10:11:25.453Z,977.06
2016-12-11T10:12:25.532Z,979.01
2016-12-11T10:13:25.479Z,980.73
2016-12-11T10:14:25.514Z,983.54
2016-12-11T10:15:25.474Z,987.97
2016-12-11T10:16:25.620Z,979.2
2016-12-11T10:17:25.523Z,975.68
2016-12-11T10:18:25.531Z,978.13
2016-12-11T10:19:25.480Z,977.64
2016-12-11T10:20:25.602Z,980.86
2016-12-11T10:21:25.517Z,980.05
2016-12-11T10:22:25.566Z,979.88
2016-12-11T10:23:25.492Z,976.87
2016-12-11T10:24:25.633Z,975.3
2016-12-11T10:25:25.476Z,973.92
2016-12-11T10:26:25.529Z,971.14
2016-12-11T10:27:25.498Z,973.33
2016-12-11T10:28:25.653Z,971.36
2016-12-11T10:29:25.474Z,968.35
2016-12-11T10:30:25.524Z,968.92
2016-12-11T10:31:25.510Z,968.82
2016-12-11T10:32:25.535Z,969.16
2016-12-11T10:33:25.490Z,966.82
2016-12-11T10:34:25.632Z,967.2
2016-12-11T10:35:25.496Z,967.33
2016-12-11T10:36:25.545Z,962.51
2016-12-11T10:37:25.481Z,961.45
2016-12-11T10:38:25.648Z,957.71
2016-12-11T10:39:25.581Z,957.33
2016-12-11T10:40:25.655Z,959.21
2016-12-11T10:41:26.268Z,958.38
2016-12-11T10:42:25.634Z,960.38
2016-12-11T10:43:25.523Z,962.04
2016-12-11T10:44:25.659Z,956.29
2016-12-11T10:45:25.550Z,955.3
2016-12-11T10:46:25.609Z,953.27
2016-12-11T10:47:25.525Z,952.25
2016-12-11T10:48:25.678Z,952.63
2016-12-11T10:49:25.536Z,956.23
2016-12-11T10:50:25.688Z,953.16
2016-12-11T10:51:25.558Z,954.73
2016-12-11T10:52:25.625Z,954.31
2016-12-11T10:53:25.532Z,958.19
2016-12-11T10:54:25.542Z,956.85
2016-12-11T10:55:26.072Z,957.96
2016-12-11T10:56:25.611Z,958.41
2016-12-11T10:57:25.550Z,957.27
2016-12-11T10:58:25.636Z,959.21
2016-12-11T10:59:25.512Z,960.12
2016-12-11T11:00:25.573Z,960.17
2016-12-11T11:01:25.527Z,960.64
2016-12-11T11:02:25.554Z,959.96
2016-12-11T11:03:25.567Z,957.92
2016-12-11T11:04:25.718Z,958.91
2016-12-11T11:05:25.548Z,958.47
2016-12-11T11:06:25.564Z,961.85
2016-12-11T11:07:25.529Z,962.56
2016-12-11T11:08:25.524Z,965.36
2016-12-11T11:09:25.570Z,965.83
2016-12-11T11:10:25.543Z,966.19
2016-12-11T11:11:25.599Z,967.87
2016-12-11T11:12:26.207Z,967.43
2016-12-11T11:13:25.579Z,966.8
2016-12-11T11:14:25.666Z,967.62
2016-12-11T11:15:25.541Z,965.11
2016-12-11T11:16:25.680Z,968.17
2016-12-11T11:17:25.585Z,972.2
2016-12-11T11:18:25.565Z,976.28
2016-12-11T11:19:25.544Z,974.85
2016-12-11T11:20:25.602Z,974.53
2016-12-11T11:21:25.579Z,975.53
2016-12-11T11:22:26.171Z,978.72
2016-12-11T11:23:25.546Z,981.01
2016-12-11T11:24:25.569Z,983.01
2016-12-11T11:25:25.592Z,991.14
2016-12-11T11:26:25.563Z,996.55
2016-12-11T11:27:25.573Z,1002.36
2016-12-11T11:28:25.606Z,1005.81
2016-12-11T11:29:25.603Z,1003.21
2016-12-11T11:30:25.698Z,1002.9
2016-12-11T11:31:25.589Z,1013.22
2016-12-11T11:32:25.599Z,1020.85
2016-12-11T11:33:25.632Z,1026.48
2016-12-11T11:34:25.644Z,1021.39
2016-12-11T11:35:25.584Z,1013.68
2016-12-11T11:36:25.725Z,1014.3
2016-12-11T11:37:25.635Z,1019.96
2016-12-11T11:38:25.725Z,1015.09
2016-12-11T11:39:25.598Z,1014.7
2016-12-11T11:40:25.660Z,1016.19
2016-12-11T11:41:25.623Z,1013.02
2016-12-11T11:42:25.638Z,1011.21
2016-12-11T11:43:25.597Z,1014.1
2016-12-11T11:44:25.691Z,1012.37
2016-12-11T11:45:25.570Z,1010.15
2016-12-11T11:46:25.717Z,1005.72
2016-12-11T11:47:25.604Z,1004.31
2016-12-11T11:48:25.704Z,1002.42
2016-12-11T11:49:25.590Z,1006.19
2016-12-11T11:50:25.594Z,1008.4
2016-12-11T11:51:25.579Z,1010.92
2016-12-11T11:52:25.679Z,1014.55
2016-12-11T11:53:25.584Z,1014.26
2016-12-11T11:54:25.692Z,1006.88
2016-12-11T11:55:25.609Z,1000.4
2016-12-11T11:56:25.601Z,1001.5
2016-12-11T11:57:25.609Z,1005.12
2016-12-11T11:58:25.725Z,1008.67
2016-12-11T11:59:25.601Z,1007.47
2016-12-11T12:00:25.718Z,1005.83
2016-12-11T12:01:25.643Z,1005.82
2016-12-11T12:02:26.730Z,1015.53
2016-12-11T12:03:25.626Z,1010.9
2016-12-11T12:04:25.703Z,1011.73
2016-12-11T12:05:25.642Z,1016.35
2016-12-11T12:06:25.685Z,1020.42
2016-12-11T12:07:25.645Z,1023.4
2016-12-11T12:08:25.647Z,1019.1
2016-12-11T12:09:25.716Z,1020.52
2016-12-11T12:10:25.712Z,1012.4
2016-12-11T12:11:25.630Z,1013.57
2016-12-11T12:12:25.749Z,1012.56
2016-12-11T12:13:25.641Z,1011.22
2016-12-11T12:14:25.658Z,1008.09
2016-12-11T12:15:25.621Z,1008.97
2016-12-11T12:16:25.740Z,1008.36
2016-12-11T12:17:25.679Z,1003.79
2016-12-11T12:18:25.691Z,1002.81
2016-12-11T12:19:25.638Z,1009.73
2016-12-11T12:20:25.794Z,1013.88
2016-12-11T12:21:25.687Z,1013.5
2016-12-11T12:22:25.682Z,1008.36
2016-12-11T12:23:25.674Z,999.06
2016-12-11T12:24:25.754Z,995.68
2016-12-11T12:25:25.674Z,1001.02
2016-12-11T12:26:25.774Z,1004.62
2016-12-11T12:27:25.664Z,1001.52